Green Cove Springs, Florida
Current Conditions -  °F | °C
As of 11:53 AM on Sunday 23 Nov 2014 (Local Time) from KNIP Reporting Station
Broken Clouds Broken Clouds  
Wind Chill: 75°   Ceiling: 2400
Heat Index: 75°   Visibility: 10mi
Dew Point: 69°   Wind: 12mph
Humidity: 82%   Direction: 180°S
Pressure: 29.96"   Gusts: NA
Location:  29.99°N, 81.68°W
Report Text: KNIP 231653Z 18010KT 10SM SCT019 BKN024 BKN030 24/21 A2996 RMK AO2 SLP142 T02390206 $
Loading
Personal Weather Stations






























Interactive Weather Map New forecast layout! Learn more

10-Day Weather Forecast

Advertisements
Track Severe Weather on mobile